Time;durP1;ratioP1;P1;durP2;ratioP2;P2;SDS_P1;SDS_P2;PMS_P1;PMS_P2;Temp;Humidity;BMP_temperature;BMP_pressure;BME280_temperature;BME280_humidity;BME280_pressure;Samples;Min_cycle;Max_cycle;Signal;HPM_P1;HPM_P2
2022/04/14 00:00:27;;;;;;;13.25;5.43;;;;;;;;;;4988487;28;20046;-59
2022/04/14 00:02:53;;;;;;;12.98;5.90;;;;;;;;;;4987584;28;20050;-59
2022/04/14 00:05:19;;;;;;;10.13;5.43;;;;;;;;;;4987711;28;20046;-59
2022/04/14 00:07:46;;;;;;;11.75;5.93;;;;;;;;;;4988112;28;20042;-59
2022/04/14 00:10:13;;;;;;;12.40;5.82;;;;;;;;;;4988128;28;20054;-59
2022/04/14 00:12:39;;;;;;;12.63;5.78;;;;;;;;;;4987726;28;20074;-60
2022/04/14 00:15:06;;;;;;;13.73;5.60;;;;;;;;;;4988128;28;20053;-59
2022/04/14 00:17:33;;;;;;;12.40;5.28;;;;;;;;;;4987047;28;20053;-59
2022/04/14 00:20:00;;;;;;;14.32;5.90;;;;;;;;;;4987861;28;20088;-59
2022/04/14 00:22:26;;;;;;;9.93;5.50;;;;;;;;;;4988480;28;20077;-59
2022/04/14 00:24:52;;;;;;;10.23;5.28;;;;;;;;;;4987110;28;20137;-59
2022/04/14 00:27:19;;;;;;;15.23;5.90;;;;;;;;;;4987527;28;20141;-59
2022/04/14 00:29:45;;;;;;;12.15;5.95;;;;;;;;;;4987160;28;20038;-59
2022/04/14 00:32:11;;;;;;;12.45;5.80;;;;;;;;;;4992981;28;20069;-59
2022/04/14 00:34:37;;;;;;;14.00;6.25;;;;;;;;;;4987942;28;20493;-59
2022/04/14 00:37:04;;;;;;;11.57;6.13;;;;;;;;;;4987536;28;20046;-59
2022/04/14 00:39:30;;;;;;;14.00;5.72;;;;;;;;;;4987668;28;20038;-59
2022/04/14 00:41:56;;;;;;;13.48;6.22;;;;;;;;;;4987278;28;20129;-59
2022/04/14 00:44:22;;;;;;;17.98;6.20;;;;;;;;;;4987495;28;20046;-59
2022/04/14 00:46:49;;;;;;;16.08;6.30;;;;;;;;;;4986451;28;20057;-59
2022/04/14 00:49:15;;;;;;;15.07;6.47;;;;;;;;;;4987163;28;20038;-59
2022/04/14 00:51:41;;;;;;;13.27;6.40;;;;;;;;;;4986952;28;20042;-59
2022/04/14 00:54:07;;;;;;;14.57;7.03;;;;;;;;;;4987472;28;20480;-59
2022/04/14 00:56:33;;;;;;;13.35;6.82;;;;;;;;;;4986666;28;20050;-59
2022/04/14 00:58:59;;;;;;;10.57;5.72;;;;;;;;;;4970010;28;20058;-59
2022/04/14 01:01:25;;;;;;;10.45;6.38;;;;;;;;;;4969247;28;20050;-59
2022/04/14 01:03:53;;;;;;;16.27;7.38;;;;;;;;;;4987025;28;20413;-59
2022/04/14 01:06:21;;;;;;;17.30;7.63;;;;;;;;;;4986826;28;20081;-59
2022/04/14 01:11:16;;;;;;;11.25;6.88;;;;;;;;;;5058331;23;20068;-59
2022/04/14 01:13:43;;;;;;;19.50;7.00;;;;;;;;;;5008293;28;20474;-60
2022/04/14 01:16:09;;;;;;;16.77;9.68;;;;;;;;;;5026425;28;20049;-59
2022/04/14 01:18:35;;;;;;;15.07;8.25;;;;;;;;;;5025617;28;20041;-59
2022/04/14 01:21:01;;;;;;;20.55;8.50;;;;;;;;;;5026113;28;20072;-59
2022/04/14 01:23:42;;;;;;;14.68;8.40;;;;;;;;;;5026592;28;20119;-59
2022/04/14 01:26:08;;;;;;;15.10;8.07;;;;;;;;;;5026209;28;20072;-59
2022/04/14 01:28:35;;;;;;;14.93;7.65;;;;;;;;;;5025800;28;20083;-59
2022/04/14 01:31:01;;;;;;;13.85;8.05;;;;;;;;;;5025927;28;20063;-59
2022/04/14 01:33:27;;;;;;;13.57;7.63;;;;;;;;;;5025169;28;20445;-60
2022/04/14 01:35:53;;;;;;;12.98;7.35;;;;;;;;;;5025501;28;20046;-59
2022/04/14 01:38:19;;;;;;;17.98;8.05;;;;;;;;;;5025606;28;20037;-59
2022/04/14 01:40:45;;;;;;;16.75;8.25;;;;;;;;;;5025698;28;20050;-59
2022/04/14 01:43:11;;;;;;;20.85;9.90;;;;;;;;;;5025210;28;20064;-59
2022/04/14 01:45:37;;;;;;;11.18;7.57;;;;;;;;;;5025355;28;20042;-59
2022/04/14 01:48:04;;;;;;;15.43;8.65;;;;;;;;;;5025059;28;20045;-59
2022/04/14 01:50:30;;;;;;;20.45;8.20;;;;;;;;;;5025743;28;20124;-59
2022/04/14 01:52:56;;;;;;;16.27;8.50;;;;;;;;;;5024964;28;20084;-59
2022/04/14 01:55:22;;;;;;;18.05;8.13;;;;;;;;;;5025746;28;20072;-59
2022/04/14 01:57:48;;;;;;;14.65;8.75;;;;;;;;;;5025242;28;20045;-59
2022/04/14 02:00:16;;;;;;;12.70;8.40;;;;;;;;;;5025548;28;20059;-59
2022/04/14 02:02:42;;;;;;;17.20;8.73;;;;;;;;;;5024640;28;20050;-59
2022/04/14 02:05:08;;;;;;;14.75;7.15;;;;;;;;;;5025557;28;20054;-59
2022/04/14 02:07:34;;;;;;;13.88;9.00;;;;;;;;;;5007626;28;20045;-59
2022/04/14 02:10:01;;;;;;;15.13;8.88;;;;;;;;;;5025145;28;20049;-59
2022/04/14 02:12:27;;;;;;;17.05;8.00;;;;;;;;;;5025673;28;20079;-60
2022/04/14 02:14:54;;;;;;;15.23;8.27;;;;;;;;;;5025227;28;20041;-59
2022/04/14 02:17:20;;;;;;;15.63;9.25;;;;;;;;;;5024771;28;20079;-59
2022/04/14 02:19:47;;;;;;;13.55;8.27;;;;;;;;;;5025027;28;20049;-59
2022/04/14 02:22:13;;;;;;;17.15;8.63;;;;;;;;;;5024772;28;20061;-59
2022/04/14 02:24:39;;;;;;;12.27;8.10;;;;;;;;;;5024867;28;20168;-59
2022/04/14 02:27:06;;;;;;;14.50;8.98;;;;;;;;;;5025010;28;20068;-59
2022/04/14 02:29:32;;;;;;;18.27;8.68;;;;;;;;;;5025052;28;20041;-60
2022/04/14 02:31:58;;;;;;;16.48;8.75;;;;;;;;;;5006381;28;20045;-59
2022/04/14 02:34:26;;;;;;;15.38;9.02;;;;;;;;;;5025174;28;20402;-59
2022/04/14 02:36:52;;;;;;;19.50;9.87;;;;;;;;;;5024784;28;20135;-59
2022/04/14 02:39:18;;;;;;;21.67;10.25;;;;;;;;;;5024843;28;20288;-59
2022/04/14 02:41:45;;;;;;;21.92;10.50;;;;;;;;;;5024269;28;20048;-59
2022/04/14 02:44:11;;;;;;;18.23;10.90;;;;;;;;;;5025059;28;20049;-59
2022/04/14 02:46:37;;;;;;;19.83;11.32;;;;;;;;;;5023832;28;20582;-59
2022/04/14 02:49:04;;;;;;;21.80;12.40;;;;;;;;;;5028793;28;20049;-59
2022/04/14 02:51:30;;;;;;;24.30;12.60;;;;;;;;;;5028528;28;20053;-58
2022/04/14 02:53:56;;;;;;;22.42;12.35;;;;;;;;;;5029087;28;20824;-59
2022/04/14 02:56:22;;;;;;;22.40;12.05;;;;;;;;;;5029042;28;20453;-59
2022/04/14 02:58:48;;;;;;;26.15;12.48;;;;;;;;;;5028624;28;20048;-59
2022/04/14 03:01:15;;;;;;;20.42;11.93;;;;;;;;;;5028222;28;20076;-59
2022/04/14 03:03:41;;;;;;;21.27;11.90;;;;;;;;;;5028186;28;20046;-59
2022/04/14 03:06:07;;;;;;;18.15;11.70;;;;;;;;;;5028474;28;20046;-60
2022/04/14 03:08:34;;;;;;;22.42;12.32;;;;;;;;;;5028335;28;20084;-59
2022/04/14 03:11:00;;;;;;;22.15;12.07;;;;;;;;;;5010907;28;20049;-59
2022/04/14 03:13:26;;;;;;;22.80;12.77;;;;;;;;;;5028783;28;20053;-59
2022/04/14 03:15:52;;;;;;;22.55;12.90;;;;;;;;;;5028444;28;20111;-59
2022/04/14 03:18:18;;;;;;;21.23;12.45;;;;;;;;;;5027496;28;20482;-59
2022/04/14 03:20:44;;;;;;;22.50;12.93;;;;;;;;;;5028043;28;20041;-59
2022/04/14 03:23:11;;;;;;;24.13;12.95;;;;;;;;;;5028281;28;20120;-59
2022/04/14 03:25:37;;;;;;;26.05;13.93;;;;;;;;;;5028302;28;20052;-59
2022/04/14 03:28:04;;;;;;;27.23;13.20;;;;;;;;;;5028380;28;20501;-59
2022/04/14 03:30:30;;;;;;;27.27;13.20;;;;;;;;;;5028371;28;20100;-58
2022/04/14 03:32:56;;;;;;;18.20;12.00;;;;;;;;;;5027251;28;20131;-59
2022/04/14 03:35:22;;;;;;;21.08;12.82;;;;;;;;;;5027930;28;20045;-59
2022/04/14 03:37:48;;;;;;;29.90;14.60;;;;;;;;;;5027974;28;20604;-59
2022/04/14 03:40:15;;;;;;;25.92;13.80;;;;;;;;;;5028309;28;20131;-59
2022/04/14 03:42:41;;;;;;;26.30;13.55;;;;;;;;;;5027665;28;20095;-59
2022/04/14 03:45:07;;;;;;;24.25;13.10;;;;;;;;;;5028196;28;20537;-59
2022/04/14 03:47:34;;;;;;;22.70;13.52;;;;;;;;;;5026348;28;20056;-59
2022/04/14 03:50:00;;;;;;;22.48;13.35;;;;;;;;;;5027710;28;20402;-58
2022/04/14 03:52:26;;;;;;;29.40;13.73;;;;;;;;;;5027921;28;20044;-59
2022/04/14 03:54:52;;;;;;;22.38;13.10;;;;;;;;;;5027478;28;20042;-59
2022/04/14 03:57:19;;;;;;;22.75;12.82;;;;;;;;;;5010023;28;20176;-59
2022/04/14 03:59:45;;;;;;;21.27;12.88;;;;;;;;;;5026036;28;20414;-60
2022/04/14 04:02:11;;;;;;;26.40;14.98;;;;;;;;;;5026926;28;20041;-59
2022/04/14 04:04:37;;;;;;;26.25;15.00;;;;;;;;;;5027114;28;20069;-59
2022/04/14 04:07:04;;;;;;;23.52;14.65;;;;;;;;;;5009714;28;20029;-59
2022/04/14 04:09:33;;;;;;;22.63;13.90;;;;;;;;;;5027261;28;20137;-59
2022/04/14 04:12:00;;;;;;;22.15;13.18;;;;;;;;;;5027915;28;20054;-59
2022/04/14 04:14:26;;;;;;;22.17;13.20;;;;;;;;;;5027545;28;20730;-60
2022/04/14 04:16:52;;;;;;;23.05;13.57;;;;;;;;;;5025848;28;20041;-59
2022/04/14 04:19:18;;;;;;;22.52;11.73;;;;;;;;;;5027247;28;20049;-59
2022/04/14 04:21:44;;;;;;;21.65;13.02;;;;;;;;;;5026837;28;20041;-59
2022/04/14 04:24:10;;;;;;;23.90;12.65;;;;;;;;;;5027239;28;20045;-59
2022/04/14 04:26:36;;;;;;;24.13;13.43;;;;;;;;;;5027124;28;20042;-59
2022/04/14 04:29:02;;;;;;;22.58;13.90;;;;;;;;;;5027173;28;20419;-59
2022/04/14 04:31:29;;;;;;;25.77;14.38;;;;;;;;;;5026290;28;20051;-59
2022/04/14 04:33:55;;;;;;;23.30;13.55;;;;;;;;;;5027161;28;20034;-59
2022/04/14 04:36:21;;;;;;;31.35;15.18;;;;;;;;;;5026811;28;20565;-59
2022/04/14 04:38:47;;;;;;;26.80;14.73;;;;;;;;;;5026239;28;20128;-59
2022/04/14 04:41:13;;;;;;;30.15;15.90;;;;;;;;;;5026414;28;20065;-59
2022/04/14 04:43:40;;;;;;;29.13;16.02;;;;;;;;;;5026042;28;20048;-59
2022/04/14 04:46:08;;;;;;;27.02;15.80;;;;;;;;;;5025567;28;20063;-59
2022/04/14 04:48:35;;;;;;;30.80;15.93;;;;;;;;;;5026011;28;20069;-59
2022/04/14 04:51:01;;;;;;;30.42;16.73;;;;;;;;;;5026081;28;20037;-59
2022/04/14 04:53:27;;;;;;;27.75;16.30;;;;;;;;;;5026719;28;20041;-59
2022/04/14 04:55:53;;;;;;;28.92;15.98;;;;;;;;;;5025632;28;20423;-59
2022/04/14 04:58:19;;;;;;;34.78;18.08;;;;;;;;;;5026027;28;20072;-59
2022/04/14 05:00:46;;;;;;;31.42;17.55;;;;;;;;;;5024640;28;20736;-59
2022/04/14 05:03:12;;;;;;;31.00;17.00;;;;;;;;;;5025866;28;20399;-59
2022/04/14 05:05:39;;;;;;;28.25;17.05;;;;;;;;;;5025657;28;20042;-59
2022/04/14 05:08:07;;;;;;;28.70;17.38;;;;;;;;;;5026100;28;20096;-59
2022/04/14 05:10:33;;;;;;;31.42;17.17;;;;;;;;;;5025282;28;20119;-59
2022/04/14 05:13:00;;;;;;;30.08;16.75;;;;;;;;;;5025559;28;20663;-60
2022/04/14 05:15:26;;;;;;;36.03;16.90;;;;;;;;;;5025446;28;20056;-59
2022/04/14 05:17:52;;;;;;;29.38;17.58;;;;;;;;;;5024781;28;20045;-59
2022/04/14 05:20:18;;;;;;;30.70;17.17;;;;;;;;;;5025549;28;20034;-59
2022/04/14 05:22:44;;;;;;;30.08;17.25;;;;;;;;;;5025517;28;20037;-59
2022/04/14 05:25:10;;;;;;;33.05;17.98;;;;;;;;;;5025555;28;20033;-59
2022/04/14 05:27:37;;;;;;;39.45;18.00;;;;;;;;;;5025512;28;20077;-59
2022/04/14 05:30:03;;;;;;;26.55;15.73;;;;;;;;;;5025348;28;20041;-59
2022/04/14 05:32:29;;;;;;;29.95;17.13;;;;;;;;;;5025352;28;20064;-59
2022/04/14 05:34:55;;;;;;;29.35;17.55;;;;;;;;;;5026230;28;20088;-59
2022/04/14 05:37:21;;;;;;;32.55;18.10;;;;;;;;;;5026198;28;20045;-59
2022/04/14 05:39:47;;;;;;;29.33;17.67;;;;;;;;;;5025856;28;20046;-59
2022/04/14 05:42:13;;;;;;;28.73;17.27;;;;;;;;;;5025932;28;20037;-59
2022/04/14 05:44:40;;;;;;;31.02;17.98;;;;;;;;;;5024847;28;20045;-59
2022/04/14 05:47:06;;;;;;;35.75;19.50;;;;;;;;;;5024361;28;20037;-59
2022/04/14 05:49:33;;;;;;;31.05;18.70;;;;;;;;;;5024521;28;20075;-59
2022/04/14 05:51:59;;;;;;;30.15;18.75;;;;;;;;;;5025958;28;20498;-59
2022/04/14 05:54:25;;;;;;;35.15;20.33;;;;;;;;;;5025894;28;20072;-59
2022/04/14 05:56:51;;;;;;;34.28;20.60;;;;;;;;;;5025837;28;20041;-59
2022/04/14 05:59:17;;;;;;;31.75;19.63;;;;;;;;;;5025995;28;20045;-59
2022/04/14 06:01:44;;;;;;;33.53;19.02;;;;;;;;;;5024812;28;20084;-59
2022/04/14 06:04:11;;;;;;;35.10;20.25;;;;;;;;;;5024886;28;20478;-59
2022/04/14 06:06:37;;;;;;;40.72;21.52;;;;;;;;;;5018377;28;20662;-60
2022/04/14 06:09:03;;;;;;;38.42;19.95;;;;;;;;;;5021759;28;20834;-59
2022/04/14 06:11:30;;;;;;;33.88;20.35;;;;;;;;;;5022385;28;20046;-57
2022/04/14 06:13:56;;;;;;;40.42;21.88;;;;;;;;;;5022134;28;20545;-59
2022/04/14 06:16:22;;;;;;;33.08;20.00;;;;;;;;;;5019633;28;20479;-59
2022/04/14 06:18:48;;;;;;;39.72;21.15;;;;;;;;;;5021249;28;20546;-60
2022/04/14 06:21:14;;;;;;;41.80;22.80;;;;;;;;;;5020457;28;20042;-62
2022/04/14 06:23:41;;;;;;;39.63;21.40;;;;;;;;;;5015449;28;20414;-60
2022/04/14 06:26:07;;;;;;;44.15;23.58;;;;;;;;;;5019123;28;20120;-60
2022/04/14 06:28:34;;;;;;;42.17;21.70;;;;;;;;;;5019683;28;20553;-60
2022/04/14 06:31:01;;;;;;;46.00;23.13;;;;;;;;;;5020336;28;20107;-59
2022/04/14 06:33:30;;;;;;;45.88;23.98;;;;;;;;;;5021933;28;20697;-60
2022/04/14 06:35:59;;;;;;;43.17;23.40;;;;;;;;;;5018708;28;20045;-60
2022/04/14 06:38:27;;;;;;;42.97;22.60;;;;;;;;;;5022406;28;20049;-59
2022/04/14 06:40:53;;;;;;;48.38;25.95;;;;;;;;;;5019316;28;20400;-60
2022/04/14 06:43:19;;;;;;;42.92;22.75;;;;;;;;;;5022549;28;20049;-60
2022/04/14 06:45:45;;;;;;;42.15;22.92;;;;;;;;;;5020573;28;20616;-59
2022/04/14 06:48:12;;;;;;;44.50;23.25;;;;;;;;;;5022536;28;20049;-60
2022/04/14 06:50:38;;;;;;;47.00;24.17;;;;;;;;;;5021993;28;20041;-60
2022/04/14 06:53:04;;;;;;;46.50;23.60;;;;;;;;;;5021802;28;20053;-59
2022/04/14 06:55:30;;;;;;;41.10;22.05;;;;;;;;;;5022112;28;20099;-60
2022/04/14 06:57:58;;;;;;;46.42;24.48;;;;;;;;;;5021077;28;20168;-60
2022/04/14 07:00:24;;;;;;;43.78;22.40;;;;;;;;;;5021986;28;20077;-59
2022/04/14 07:02:52;;;;;;;48.83;22.90;;;;;;;;;;5022415;28;20568;-60
2022/04/14 07:05:19;;;;;;;;;;;;;;;;;;5022566;28;20048;-59
2022/04/14 07:07:45;;;;;;;42.22;19.77;;;;;;;;;;5021812;28;20007;-60
2022/04/14 07:10:12;;;;;;;43.75;21.42;;;;;;;;;;5022129;28;20064;-59
2022/04/14 07:12:39;;;;;;;45.97;22.23;;;;;;;;;;5022178;28;20057;-61
2022/04/14 07:15:06;;;;;;;43.80;22.58;;;;;;;;;;5004804;28;20050;-59
2022/04/14 07:17:34;;;;;;;42.80;21.15;;;;;;;;;;5003535;28;20112;-59
2022/04/14 07:20:03;;;;;;;40.58;20.33;;;;;;;;;;5022708;28;20080;-60
2022/04/14 07:22:29;;;;;;;41.50;22.13;;;;;;;;;;5022708;28;20116;-59
2022/04/14 07:24:58;;;;;;;54.70;22.45;;;;;;;;;;5022583;28;20487;-60
2022/04/14 07:27:24;;;;;;;40.83;20.55;;;;;;;;;;5022485;28;20042;-59
2022/04/14 07:29:51;;;;;;;39.55;20.92;;;;;;;;;;5022094;28;20059;-60
2022/04/14 07:32:18;;;;;;;39.85;19.77;;;;;;;;;;5021294;28;20124;-60
2022/04/14 07:34:44;;;;;;;39.13;19.80;;;;;;;;;;5025467;28;20037;-60
2022/04/14 07:37:10;;;;;;;36.35;17.95;;;;;;;;;;5025668;28;20138;-61
2022/04/14 07:39:37;;;;;;;35.92;17.13;;;;;;;;;;5025024;28;20041;-61
2022/04/14 07:42:03;;;;;;;37.83;17.73;;;;;;;;;;5025181;28;20045;-61
2022/04/14 07:44:29;;;;;;;34.20;16.25;;;;;;;;;;5025773;28;20044;-61
2022/04/14 07:46:56;;;;;;;28.95;14.90;;;;;;;;;;5006680;28;20045;-60
2022/04/14 07:49:22;;;;;;;29.27;16.52;;;;;;;;;;5025239;28;20152;-61
2022/04/14 07:51:48;;;;;;;31.67;15.45;;;;;;;;;;5025069;28;20100;-62
2022/04/14 07:54:14;;;;;;;29.35;15.15;;;;;;;;;;5024960;28;20128;-61
2022/04/14 07:56:40;;;;;;;29.08;15.45;;;;;;;;;;5024976;28;20053;-61
2022/04/14 07:59:07;;;;;;;34.38;16.00;;;;;;;;;;5024947;28;20111;-61
2022/04/14 08:01:33;;;;;;;29.67;16.42;;;;;;;;;;5023984;28;20037;-61
2022/04/14 08:03:59;;;;;;;31.15;17.55;;;;;;;;;;5025321;28;20092;-62
2022/04/14 08:06:27;;;;;;;32.13;16.50;;;;;;;;;;5025054;28;20037;-62
2022/04/14 08:08:54;;;;;;;27.63;15.93;;;;;;;;;;5025063;28;20053;-61
2022/04/14 08:11:20;;;;;;;31.80;17.10;;;;;;;;;;5003379;28;20569;-61
2022/04/14 08:13:46;;;;;;;29.98;16.58;;;;;;;;;;5005176;28;20119;-60
2022/04/14 08:16:12;;;;;;;31.55;17.67;;;;;;;;;;5004614;28;20475;-60
2022/04/14 08:18:39;;;;;;;28.00;14.15;;;;;;;;;;5004424;28;20141;-60
2022/04/14 08:21:06;;;;;;;22.50;12.80;;;;;;;;;;5004767;28;20037;-59
2022/04/14 08:23:32;;;;;;;25.77;12.48;;;;;;;;;;5004528;28;20104;-59
2022/04/14 08:26:01;;;;;;;21.88;13.18;;;;;;;;;;5004910;28;20046;-60
2022/04/14 08:28:27;;;;;;;23.27;12.13;;;;;;;;;;5001843;28;20058;-59
2022/04/14 08:30:54;;;;;;;23.70;13.40;;;;;;;;;;5003443;28;20053;-60
2022/04/14 08:33:23;;;;;;;24.73;13.97;;;;;;;;;;5007087;28;20045;-60
2022/04/14 08:35:49;;;;;;;;;;;;;;;;;;5007269;28;20277;-60
2022/04/14 08:38:16;;;;;;;23.05;12.30;;;;;;;;;;5007430;28;19972;-60
2022/04/14 08:40:42;;;;;;;21.15;12.75;;;;;;;;;;5007356;28;20042;-60
2022/04/14 08:43:09;;;;;;;26.90;13.18;;;;;;;;;;5006991;28;20095;-60
2022/04/14 08:45:37;;;;;;;27.45;12.15;;;;;;;;;;5005143;28;20568;-60
2022/04/14 08:48:04;;;;;;;19.45;11.23;;;;;;;;;;5006084;28;20054;-60
2022/04/14 08:50:30;;;;;;;20.67;10.73;;;;;;;;;;5006814;28;20038;-60
2022/04/14 08:52:57;;;;;;;21.25;11.38;;;;;;;;;;5007382;28;20068;-59
2022/04/14 08:55:23;;;;;;;20.85;10.30;;;;;;;;;;5007288;28;20074;-59
2022/04/14 08:57:49;;;;;;;19.27;12.30;;;;;;;;;;5006594;28;20046;-59
2022/04/14 09:00:16;;;;;;;19.83;12.32;;;;;;;;;;5005954;28;20074;-59
2022/04/14 09:02:45;;;;;;;21.33;12.10;;;;;;;;;;5006774;28;20050;-60
2022/04/14 09:05:13;;;;;;;22.00;12.32;;;;;;;;;;5006342;28;20116;-59
2022/04/14 09:07:39;;;;;;;20.92;11.75;;;;;;;;;;5006047;28;20049;-60
2022/04/14 09:10:06;;;;;;;21.27;11.60;;;;;;;;;;5015100;28;20060;-59
2022/04/14 09:12:32;;;;;;;22.33;12.23;;;;;;;;;;5025783;28;20088;-59
2022/04/14 09:15:00;;;;;;;22.73;13.00;;;;;;;;;;5025773;28;20041;-59
2022/04/14 09:17:29;;;;;;;18.30;12.20;;;;;;;;;;5026522;28;20045;-59
2022/04/14 09:19:55;;;;;;;22.60;13.57;;;;;;;;;;5026678;28;20087;-59
2022/04/14 09:22:21;;;;;;;21.50;13.18;;;;;;;;;;5008440;28;20454;-59
2022/04/14 09:24:48;;;;;;;20.20;13.52;;;;;;;;;;5025923;28;20045;-60
2022/04/14 09:27:23;;;;;;;24.58;12.95;;;;;;;;;;5025864;28;20132;-59
2022/04/14 09:29:50;;;;;;;21.80;13.00;;;;;;;;;;5025829;28;20049;-60
2022/04/14 09:32:35;;;;;;;23.20;13.90;;;;;;;;;;5025684;28;20042;-59
2022/04/14 09:35:04;;;;;;;19.35;12.18;;;;;;;;;;5026029;28;20052;-58
2022/04/14 09:37:29;;;;;;;;;;;;;;;;;;5026712;28;20517;-58
2022/04/14 09:40:05;;;;;;;19.05;11.25;;;;;;;;;;5025951;28;19979;-59
2022/04/14 09:42:33;;;;;;;22.83;13.07;;;;;;;;;;5025112;28;20116;-59
2022/04/14 09:45:18;;;;;;;19.67;11.55;;;;;;;;;;5025391;28;20168;-60
2022/04/14 09:47:44;;;;;;;18.80;11.50;;;;;;;;;;5025791;28;20050;-60
2022/04/14 09:50:24;;;;;;;21.08;11.50;;;;;;;;;;5008061;28;20052;-59
2022/04/14 09:53:03;;;;;;;19.80;12.05;;;;;;;;;;5024959;28;20060;-60
2022/04/14 09:55:30;;;;;;;16.98;11.15;;;;;;;;;;5026315;28;20190;-60
2022/04/14 09:58:17;;;;;;;18.70;10.98;;;;;;;;;;5026127;28;20084;-59
2022/04/14 10:00:52;;;;;;;18.55;9.82;;;;;;;;;;5024516;28;20542;-59
2022/04/14 10:03:19;;;;;;;13.93;8.77;;;;;;;;;;5025435;28;20558;-60
2022/04/14 10:05:46;;;;;;;15.90;9.43;;;;;;;;;;5025677;28;20043;-60
2022/04/14 10:08:13;;;;;;;19.17;10.02;;;;;;;;;;5025323;28;20049;-59
2022/04/14 10:10:40;;;;;;;12.15;8.02;;;;;;;;;;5024786;28;20057;-59
2022/04/14 10:13:09;;;;;;;14.10;8.10;;;;;;;;;;5025465;28;20506;-60
2022/04/14 10:15:37;;;;;;;14.18;8.10;;;;;;;;;;5023945;28;20078;-59
2022/04/14 10:18:06;;;;;;;11.40;7.68;;;;;;;;;;5025305;28;20053;-59
2022/04/14 10:20:33;;;;;;;19.13;8.15;;;;;;;;;;5025109;28;20060;-60
2022/04/14 10:23:00;;;;;;;11.45;7.93;;;;;;;;;;5025642;28;20042;-59
2022/04/14 10:25:27;;;;;;;12.55;7.13;;;;;;;;;;5025773;28;20088;-60
2022/04/14 10:27:54;;;;;;;12.15;7.30;;;;;;;;;;5024547;28;20048;-60
2022/04/14 10:30:20;;;;;;;9.77;6.55;;;;;;;;;;5024145;28;20636;-59
2022/04/14 10:32:47;;;;;;;13.30;6.47;;;;;;;;;;5007204;28;20049;-59
2022/04/14 10:35:13;;;;;;;11.30;6.70;;;;;;;;;;5025029;28;20053;-59
2022/04/14 10:37:44;;;;;;;12.07;7.18;;;;;;;;;;5024692;28;20483;-60
2022/04/14 10:40:11;;;;;;;11.57;7.78;;;;;;;;;;5024295;28;20183;-59
2022/04/14 10:42:38;;;;;;;14.27;7.38;;;;;;;;;;5024538;28;20053;-60
2022/04/14 10:45:15;;;;;;;10.45;7.45;;;;;;;;;;5023229;28;20037;-59
2022/04/14 10:47:53;;;;;;;16.50;7.55;;;;;;;;;;5024988;28;20226;-60
2022/04/14 10:50:20;;;;;;;;;;;;;;;;;;5025539;28;20064;-60
2022/04/14 10:53:06;;;;;;;15.68;6.97;;;;;;;;;;5020895;28;19921;-59
2022/04/14 10:55:40;;;;;;;16.73;8.18;;;;;;;;;;5024692;28;20049;-59
2022/04/14 10:58:07;;;;;;;8.88;4.47;;;;;;;;;;5024441;28;20045;-60
2022/04/14 11:00:34;;;;;;;8.93;5.03;;;;;;;;;;5023480;28;20549;-59
2022/04/14 11:03:02;;;;;;;7.80;4.70;;;;;;;;;;5024530;28;20068;-59
2022/04/14 11:05:44;;;;;;;11.13;5.65;;;;;;;;;;5024790;28;20076;-59
2022/04/14 11:08:22;;;;;;;10.95;5.60;;;;;;;;;;5007822;28;20102;-59
2022/04/14 11:10:55;;;;;;;7.15;2.83;;;;;;;;;;5027738;28;20065;-59
2022/04/14 11:13:21;;;;;;;3.83;1.50;;;;;;;;;;5027794;28;20095;-59
2022/04/14 11:15:47;;;;;;;4.35;2.00;;;;;;;;;;5027914;28;20037;-59
2022/04/14 11:18:14;;;;;;;5.93;1.73;;;;;;;;;;5027979;28;20523;-60
2022/04/14 11:20:44;;;;;;;6.35;3.00;;;;;;;;;;5028305;28;20045;-59
2022/04/14 11:23:15;;;;;;;9.35;2.97;;;;;;;;;;5011237;28;20278;-60
2022/04/14 11:25:42;;;;;;;7.45;2.40;;;;;;;;;;5027265;28;20037;-59
2022/04/14 11:28:24;;;;;;;3.30;2.33;;;;;;;;;;5027936;28;20050;-59
2022/04/14 11:30:51;;;;;;;9.00;4.18;;;;;;;;;;5025451;28;20522;-59
2022/04/14 11:33:28;;;;;;;8.00;4.10;;;;;;;;;;5027553;28;20075;-60
2022/04/14 11:35:54;;;;;;;9.10;3.60;;;;;;;;;;5026891;28;20087;-59
2022/04/14 11:38:39;;;;;;;6.80;3.63;;;;;;;;;;5027166;28;20056;-60
2022/04/14 11:41:06;;;;;;;6.25;3.17;;;;;;;;;;5026659;28;20116;-59
2022/04/14 11:43:32;;;;;;;8.73;3.47;;;;;;;;;;5027094;28;20711;-59
2022/04/14 11:45:58;;;;;;;7.70;3.80;;;;;;;;;;5027208;28;20041;-59
2022/04/14 11:48:25;;;;;;;7.25;3.38;;;;;;;;;;5027002;28;20547;-59
2022/04/14 11:50:55;;;;;;;7.47;3.35;;;;;;;;;;5027391;28;20148;-60
2022/04/14 11:53:29;;;;;;;7.57;3.53;;;;;;;;;;5027183;28;20436;-60
2022/04/14 11:55:56;;;;;;;6.28;3.30;;;;;;;;;;5028138;28;20045;-60
2022/04/14 11:58:22;;;;;;;8.43;3.10;;;;;;;;;;5027987;28;20609;-60
2022/04/14 12:00:50;;;;;;;8.23;2.20;;;;;;;;;;5026898;28;20041;-60
2022/04/14 12:03:17;;;;;;;8.63;2.30;;;;;;;;;;5027701;28;20507;-60
2022/04/14 12:05:50;;;;;;;6.60;2.60;;;;;;;;;;5027390;28;20359;-59
2022/04/14 12:08:17;;;;;;;4.15;2.22;;;;;;;;;;5027642;28;20075;-60
2022/04/14 12:10:44;;;;;;;7.57;3.10;;;;;;;;;;5027375;28;20053;-59
2022/04/14 12:13:11;;;;;;;5.28;2.63;;;;;;;;;;5027423;28;20049;-59
2022/04/14 12:15:37;;;;;;;5.15;3.20;;;;;;;;;;5026669;28;20041;-59
2022/04/14 12:18:06;;;;;;;6.45;3.20;;;;;;;;;;5009398;28;20491;-59
2022/04/14 12:20:36;;;;;;;7.20;3.15;;;;;;;;;;5026050;28;20076;-59
2022/04/14 12:23:03;;;;;;;8.90;3.60;;;;;;;;;;5027287;28;20157;-60
2022/04/14 12:25:29;;;;;;;8.20;3.58;;;;;;;;;;5027710;28;20041;-60
2022/04/14 12:27:55;;;;;;;10.88;2.80;;;;;;;;;;5027612;28;20180;-59
2022/04/14 12:30:22;;;;;;;4.97;2.72;;;;;;;;;;5026462;28;20064;-60
2022/04/14 12:32:49;;;;;;;5.07;2.42;;;;;;;;;;5026430;28;20045;-60
2022/04/14 12:35:32;;;;;;;8.07;2.55;;;;;;;;;;5027143;28;20134;-60
2022/04/14 12:38:17;;;;;;;4.28;2.42;;;;;;;;;;5027122;28;20140;-60
2022/04/14 12:40:55;;;;;;;9.85;2.22;;;;;;;;;;5027011;28;20042;-60
2022/04/14 12:43:23;;;;;;;8.65;2.38;;;;;;;;;;5026909;28;20046;-60
2022/04/14 12:45:50;;;;;;;6.43;2.10;;;;;;;;;;5025683;28;20455;-59
2022/04/14 12:48:35;;;;;;;6.18;1.50;;;;;;;;;;5027026;28;20091;-60
2022/04/14 12:51:01;;;;;;;5.75;2.03;;;;;;;;;;5026766;28;20103;-60
2022/04/14 12:53:28;;;;;;;5.32;2.42;;;;;;;;;;5026998;28;20592;-60
2022/04/14 12:56:10;;;;;;;6.20;1.85;;;;;;;;;;5026608;28;20049;-56
2022/04/14 12:58:37;;;;;;;5.63;1.58;;;;;;;;;;5025650;28;20067;-57
2022/04/14 13:01:08;;;;;;;5.43;1.90;;;;;;;;;;5025567;28;20077;-60
2022/04/14 13:03:50;;;;;;;8.02;2.38;;;;;;;;;;5026413;28;20049;-59
2022/04/14 13:06:19;;;;;;;6.50;1.65;;;;;;;;;;5008705;28;20568;-60
2022/04/14 13:08:45;;;;;;;6.38;2.20;;;;;;;;;;5025750;28;20045;-60
2022/04/14 13:11:38;;;;;;;5.75;1.58;;;;;;;;;;5026017;28;20831;-61
2022/04/14 13:14:17;;;;;;;3.15;1.50;;;;;;;;;;5026040;28;20046;-60
2022/04/14 13:16:45;;;;;;;5.65;1.60;;;;;;;;;;5026203;28;20123;-60
2022/04/14 13:19:12;;;;;;;4.45;1.60;;;;;;;;;;5025886;28;20131;-60
2022/04/14 13:21:38;;;;;;;3.85;1.10;;;;;;;;;;5026333;28;20092;-60
2022/04/14 13:24:05;;;;;;;2.03;0.80;;;;;;;;;;5008366;28;20136;-60
2022/04/14 13:26:31;;;;;;;3.42;1.20;;;;;;;;;;5025392;28;20085;-60
2022/04/14 13:28:57;;;;;;;5.47;1.08;;;;;;;;;;5025989;28;20120;-60
2022/04/14 13:31:23;;;;;;;4.68;1.17;;;;;;;;;;5025313;28;20037;-60
2022/04/14 13:33:49;;;;;;;2.72;1.08;;;;;;;;;;5025829;28;20045;-60
2022/04/14 13:36:15;;;;;;;6.95;1.13;;;;;;;;;;5025577;28;20815;-60
2022/04/14 13:38:42;;;;;;;4.43;1.35;;;;;;;;;;5007989;28;20568;-61
2022/04/14 13:41:08;;;;;;;3.53;0.82;;;;;;;;;;5025913;28;20491;-60
2022/04/14 13:43:34;;;;;;;2.35;0.85;;;;;;;;;;5024956;28;20049;-60
2022/04/14 13:46:00;;;;;;;6.78;1.55;;;;;;;;;;5025039;28;20053;-60
2022/04/14 13:48:27;;;;;;;3.22;0.70;;;;;;;;;;5026162;28;20053;-61
2022/04/14 13:50:54;;;;;;;5.72;0.95;;;;;;;;;;5025330;28;20476;-61
2022/04/14 13:53:20;;;;;;;2.95;0.90;;;;;;;;;;5025763;28;20144;-61
2022/04/14 13:55:48;;;;;;;3.92;0.93;;;;;;;;;;5025550;28;20048;-61
2022/04/14 13:58:15;;;;;;;2.28;0.82;;;;;;;;;;5024779;28;20051;-60
2022/04/14 14:00:42;;;;;;;2.58;0.80;;;;;;;;;;5024358;28;20116;-61
2022/04/14 14:03:09;;;;;;;2.20;0.60;;;;;;;;;;5025362;28;20049;-60
2022/04/14 14:05:35;;;;;;;3.33;0.70;;;;;;;;;;5025092;28;20106;-61
2022/04/14 14:08:01;;;;;;;3.85;1.35;;;;;;;;;;5025236;28;20132;-60
2022/04/14 14:10:28;;;;;;;5.82;0.73;;;;;;;;;;5025642;28;20049;-60
2022/04/14 14:12:54;;;;;;;4.43;0.98;;;;;;;;;;5024858;28;20053;-61
2022/04/14 14:15:21;;;;;;;2.38;0.82;;;;;;;;;;5024920;28;20581;-60
2022/04/14 14:17:47;;;;;;;3.53;0.70;;;;;;;;;;5024956;28;20816;-61
2022/04/14 14:20:14;;;;;;;2.70;0.75;;;;;;;;;;5025192;28;20050;-60
2022/04/14 14:22:41;;;;;;;1.52;0.82;;;;;;;;;;5025289;28;20042;-60
2022/04/14 14:25:08;;;;;;;4.72;0.90;;;;;;;;;;5024901;28;20045;-60
2022/04/14 14:27:34;;;;;;;5.88;0.93;;;;;;;;;;5024808;28;20041;-60
2022/04/14 14:30:01;;;;;;;7.65;1.17;;;;;;;;;;5024223;28;20037;-60
2022/04/14 14:32:27;;;;;;;6.22;0.60;;;;;;;;;;5025613;28;20042;-60